sensor_id;sensor_type;location;lat;lon;timestamp;P1;durP1;ratioP1;P2;durP2;ratioP2
17384;SDS011;8810;48.680;8.894;2022-09-21T00:01:52;4.00;;;2.60;;
17384;SDS011;8810;48.680;8.894;2022-09-21T00:04:20;4.90;;;2.47;;
17384;SDS011;8810;48.680;8.894;2022-09-21T00:06:47;5.03;;;2.30;;
17384;SDS011;8810;48.680;8.894;2022-09-21T00:09:14;4.40;;;2.30;;
17384;SDS011;8810;48.680;8.894;2022-09-21T00:11:41;6.70;;;2.50;;
17384;SDS011;8810;48.680;8.894;2022-09-21T00:14:09;6.77;;;2.73;;
17384;SDS011;8810;48.680;8.894;2022-09-21T00:16:38;3.87;;;2.77;;
17384;SDS011;8810;48.680;8.894;2022-09-21T00:19:06;5.53;;;2.53;;
17384;SDS011;8810;48.680;8.894;2022-09-21T00:21:34;3.63;;;2.27;;
17384;SDS011;8810;48.680;8.894;2022-09-21T00:24:02;6.60;;;2.70;;
17384;SDS011;8810;48.680;8.894;2022-09-21T00:26:29;3.13;;;2.23;;
17384;SDS011;8810;48.680;8.894;2022-09-21T00:28:57;4.20;;;2.30;;
17384;SDS011;8810;48.680;8.894;2022-09-21T00:31:26;5.93;;;2.70;;
17384;SDS011;8810;48.680;8.894;2022-09-21T00:33:54;6.97;;;2.77;;
17384;SDS011;8810;48.680;8.894;2022-09-21T00:36:22;6.90;;;2.43;;
17384;SDS011;8810;48.680;8.894;2022-09-21T00:38:51;3.03;;;2.17;;
17384;SDS011;8810;48.680;8.894;2022-09-21T00:41:20;5.50;;;2.37;;
17384;SDS011;8810;48.680;8.894;2022-09-21T00:43:48;6.83;;;2.50;;
17384;SDS011;8810;48.680;8.894;2022-09-21T00:46:37;5.77;;;2.70;;
17384;SDS011;8810;48.680;8.894;2022-09-21T00:49:05;4.77;;;2.57;;
17384;SDS011;8810;48.680;8.894;2022-09-21T00:51:32;4.17;;;2.03;;
17384;SDS011;8810;48.680;8.894;2022-09-21T00:54:02;8.23;;;2.47;;
17384;SDS011;8810;48.680;8.894;2022-09-21T00:56:32;7.70;;;2.10;;
17384;SDS011;8810;48.680;8.894;2022-09-21T00:59:00;3.23;;;2.20;;
17384;SDS011;8810;48.680;8.894;2022-09-21T01:01:28;5.13;;;2.13;;
17384;SDS011;8810;48.680;8.894;2022-09-21T01:03:55;7.83;;;2.30;;
17384;SDS011;8810;48.680;8.894;2022-09-21T01:06:22;4.97;;;2.20;;
17384;SDS011;8810;48.680;8.894;2022-09-21T01:08:51;6.17;;;2.30;;
17384;SDS011;8810;48.680;8.894;2022-09-21T01:11:29;4.17;;;2.57;;
17384;SDS011;8810;48.680;8.894;2022-09-21T01:14:08;6.13;;;2.60;;
17384;SDS011;8810;48.680;8.894;2022-09-21T01:16:42;4.60;;;2.50;;
17384;SDS011;8810;48.680;8.894;2022-09-21T01:19:21;3.50;;;2.20;;
17384;SDS011;8810;48.680;8.894;2022-09-21T01:21:59;4.37;;;2.37;;
17384;SDS011;8810;48.680;8.894;2022-09-21T01:24:40;5.53;;;2.57;;
17384;SDS011;8810;48.680;8.894;2022-09-21T01:30:20;5.30;;;2.10;;
17384;SDS011;8810;48.680;8.894;2022-09-21T01:32:50;2.70;;;2.30;;
17384;SDS011;8810;48.680;8.894;2022-09-21T01:35:22;4.50;;;2.10;;
17384;SDS011;8810;48.680;8.894;2022-09-21T01:37:54;4.63;;;2.60;;
17384;SDS011;8810;48.680;8.894;2022-09-21T01:40:25;11.23;;;2.50;;
17384;SDS011;8810;48.680;8.894;2022-09-21T01:42:55;3.90;;;2.47;;
17384;SDS011;8810;48.680;8.894;2022-09-21T01:45:26;6.27;;;2.33;;
17384;SDS011;8810;48.680;8.894;2022-09-21T01:47:58;4.67;;;2.23;;
17384;SDS011;8810;48.680;8.894;2022-09-21T01:50:28;4.17;;;2.53;;
17384;SDS011;8810;48.680;8.894;2022-09-21T01:52:58;5.80;;;2.37;;
17384;SDS011;8810;48.680;8.894;2022-09-21T01:55:31;3.10;;;2.27;;
17384;SDS011;8810;48.680;8.894;2022-09-21T01:58:06;4.67;;;2.70;;
17384;SDS011;8810;48.680;8.894;2022-09-21T02:00:39;4.83;;;2.40;;
17384;SDS011;8810;48.680;8.894;2022-09-21T02:03:11;4.40;;;2.17;;
17384;SDS011;8810;48.680;8.894;2022-09-21T02:05:41;3.73;;;2.30;;
17384;SDS011;8810;48.680;8.894;2022-09-21T02:08:09;4.73;;;2.40;;
17384;SDS011;8810;48.680;8.894;2022-09-21T02:10:38;3.83;;;2.30;;
17384;SDS011;8810;48.680;8.894;2022-09-21T02:13:10;8.87;;;2.47;;
17384;SDS011;8810;48.680;8.894;2022-09-21T02:15:45;2.97;;;2.27;;
17384;SDS011;8810;48.680;8.894;2022-09-21T02:18:30;3.87;;;2.30;;
17384;SDS011;8810;48.680;8.894;2022-09-21T02:21:06;4.20;;;2.40;;
17384;SDS011;8810;48.680;8.894;2022-09-21T02:23:41;5.83;;;3.10;;
17384;SDS011;8810;48.680;8.894;2022-09-21T02:26:16;5.40;;;2.60;;
17384;SDS011;8810;48.680;8.894;2022-09-21T02:28:50;4.00;;;2.40;;
17384;SDS011;8810;48.680;8.894;2022-09-21T02:31:28;3.33;;;2.23;;
17384;SDS011;8810;48.680;8.894;2022-09-21T02:34:02;4.80;;;2.33;;
17384;SDS011;8810;48.680;8.894;2022-09-21T02:36:37;3.23;;;2.27;;
17384;SDS011;8810;48.680;8.894;2022-09-21T02:39:09;5.23;;;2.27;;
17384;SDS011;8810;48.680;8.894;2022-09-21T02:41:42;5.63;;;2.53;;
17384;SDS011;8810;48.680;8.894;2022-09-21T02:44:19;3.43;;;2.27;;
17384;SDS011;8810;48.680;8.894;2022-09-21T02:46:52;4.60;;;2.60;;
17384;SDS011;8810;48.680;8.894;2022-09-21T02:49:22;4.97;;;2.60;;
17384;SDS011;8810;48.680;8.894;2022-09-21T02:51:55;5.80;;;1.90;;
17384;SDS011;8810;48.680;8.894;2022-09-21T02:54:26;3.80;;;2.23;;
17384;SDS011;8810;48.680;8.894;2022-09-21T02:56:56;6.43;;;2.40;;
17384;SDS011;8810;48.680;8.894;2022-09-21T02:59:24;4.57;;;2.20;;
17384;SDS011;8810;48.680;8.894;2022-09-21T03:01:53;4.53;;;2.10;;
17384;SDS011;8810;48.680;8.894;2022-09-21T03:04:20;4.33;;;2.23;;
17384;SDS011;8810;48.680;8.894;2022-09-21T03:06:48;3.90;;;2.33;;
17384;SDS011;8810;48.680;8.894;2022-09-21T03:09:15;6.57;;;2.00;;
17384;SDS011;8810;48.680;8.894;2022-09-21T03:11:42;4.67;;;2.13;;
17384;SDS011;8810;48.680;8.894;2022-09-21T03:14:09;4.70;;;2.27;;
17384;SDS011;8810;48.680;8.894;2022-09-21T03:16:36;4.37;;;2.50;;
17384;SDS011;8810;48.680;8.894;2022-09-21T03:19:05;4.00;;;2.33;;
17384;SDS011;8810;48.680;8.894;2022-09-21T03:21:32;5.23;;;2.10;;
17384;SDS011;8810;48.680;8.894;2022-09-21T03:23:58;3.03;;;2.03;;
17384;SDS011;8810;48.680;8.894;2022-09-21T03:26:25;6.27;;;2.40;;
17384;SDS011;8810;48.680;8.894;2022-09-21T03:28:52;3.83;;;2.17;;
17384;SDS011;8810;48.680;8.894;2022-09-21T03:31:19;2.93;;;1.90;;
17384;SDS011;8810;48.680;8.894;2022-09-21T03:33:47;3.10;;;2.03;;
17384;SDS011;8810;48.680;8.894;2022-09-21T03:36:15;5.27;;;1.97;;
17384;SDS011;8810;48.680;8.894;2022-09-21T03:38:42;3.37;;;2.40;;
17384;SDS011;8810;48.680;8.894;2022-09-21T03:41:09;5.00;;;2.20;;
17384;SDS011;8810;48.680;8.894;2022-09-21T03:43:37;7.53;;;2.60;;
17384;SDS011;8810;48.680;8.894;2022-09-21T03:46:04;3.60;;;1.93;;
17384;SDS011;8810;48.680;8.894;2022-09-21T03:48:31;4.30;;;2.33;;
17384;SDS011;8810;48.680;8.894;2022-09-21T03:50:58;5.57;;;2.70;;
17384;SDS011;8810;48.680;8.894;2022-09-21T03:53:26;6.03;;;2.50;;
17384;SDS011;8810;48.680;8.894;2022-09-21T03:55:53;3.93;;;2.60;;
17384;SDS011;8810;48.680;8.894;2022-09-21T03:58:20;3.77;;;2.37;;
17384;SDS011;8810;48.680;8.894;2022-09-21T04:00:46;5.83;;;2.70;;
17384;SDS011;8810;48.680;8.894;2022-09-21T04:03:13;2.43;;;1.80;;
17384;SDS011;8810;48.680;8.894;2022-09-21T04:05:40;5.80;;;2.33;;
17384;SDS011;8810;48.680;8.894;2022-09-21T04:08:07;4.47;;;2.37;;
17384;SDS011;8810;48.680;8.894;2022-09-21T04:10:35;5.50;;;2.50;;
17384;SDS011;8810;48.680;8.894;2022-09-21T04:13:06;3.17;;;2.00;;
17384;SDS011;8810;48.680;8.894;2022-09-21T04:15:33;6.30;;;2.67;;
17384;SDS011;8810;48.680;8.894;2022-09-21T04:18:00;5.90;;;2.50;;
17384;SDS011;8810;48.680;8.894;2022-09-21T04:20:27;4.67;;;2.33;;
17384;SDS011;8810;48.680;8.894;2022-09-21T04:22:54;6.53;;;2.47;;
17384;SDS011;8810;48.680;8.894;2022-09-21T04:25:22;7.97;;;2.80;;
17384;SDS011;8810;48.680;8.894;2022-09-21T04:27:50;4.50;;;2.60;;
17384;SDS011;8810;48.680;8.894;2022-09-21T04:30:17;3.20;;;2.40;;
17384;SDS011;8810;48.680;8.894;2022-09-21T04:32:44;6.50;;;3.07;;
17384;SDS011;8810;48.680;8.894;2022-09-21T04:35:11;7.83;;;3.37;;
17384;SDS011;8810;48.680;8.894;2022-09-21T04:37:38;5.60;;;2.60;;
17384;SDS011;8810;48.680;8.894;2022-09-21T04:40:05;3.30;;;2.17;;
17384;SDS011;8810;48.680;8.894;2022-09-21T04:42:33;6.60;;;2.20;;
17384;SDS011;8810;48.680;8.894;2022-09-21T04:45:02;3.60;;;2.33;;
17384;SDS011;8810;48.680;8.894;2022-09-21T04:47:29;5.13;;;2.53;;
17384;SDS011;8810;48.680;8.894;2022-09-21T04:49:56;9.50;;;3.03;;
17384;SDS011;8810;48.680;8.894;2022-09-21T04:52:23;3.97;;;2.60;;
17384;SDS011;8810;48.680;8.894;2022-09-21T04:54:50;7.10;;;2.77;;
17384;SDS011;8810;48.680;8.894;2022-09-21T04:57:17;5.10;;;2.30;;
17384;SDS011;8810;48.680;8.894;2022-09-21T04:59:44;4.10;;;2.57;;
17384;SDS011;8810;48.680;8.894;2022-09-21T05:02:12;5.37;;;2.77;;
17384;SDS011;8810;48.680;8.894;2022-09-21T05:04:39;5.20;;;2.90;;
17384;SDS011;8810;48.680;8.894;2022-09-21T05:07:05;9.70;;;2.70;;
17384;SDS011;8810;48.680;8.894;2022-09-21T05:09:32;5.47;;;2.70;;
17384;SDS011;8810;48.680;8.894;2022-09-21T05:12:17;6.07;;;2.63;;
17384;SDS011;8810;48.680;8.894;2022-09-21T05:14:43;5.53;;;2.50;;
17384;SDS011;8810;48.680;8.894;2022-09-21T05:17:12;6.07;;;2.60;;
17384;SDS011;8810;48.680;8.894;2022-09-21T05:19:39;3.53;;;2.30;;
17384;SDS011;8810;48.680;8.894;2022-09-21T05:22:05;4.73;;;2.63;;
17384;SDS011;8810;48.680;8.894;2022-09-21T05:24:32;5.83;;;2.87;;
17384;SDS011;8810;48.680;8.894;2022-09-21T05:26:59;4.03;;;2.50;;
17384;SDS011;8810;48.680;8.894;2022-09-21T05:29:27;5.30;;;2.37;;
17384;SDS011;8810;48.680;8.894;2022-09-21T05:31:54;3.60;;;2.40;;
17384;SDS011;8810;48.680;8.894;2022-09-21T05:34:31;5.40;;;2.63;;
17384;SDS011;8810;48.680;8.894;2022-09-21T05:37:06;4.50;;;2.63;;
17384;SDS011;8810;48.680;8.894;2022-09-21T05:39:39;4.60;;;2.70;;
17384;SDS011;8810;48.680;8.894;2022-09-21T05:42:06;7.17;;;2.73;;
17384;SDS011;8810;48.680;8.894;2022-09-21T05:44:35;7.70;;;2.90;;
17384;SDS011;8810;48.680;8.894;2022-09-21T05:47:03;7.23;;;3.00;;
17384;SDS011;8810;48.680;8.894;2022-09-21T05:49:47;6.63;;;3.13;;
17384;SDS011;8810;48.680;8.894;2022-09-21T05:52:23;6.13;;;3.67;;
17384;SDS011;8810;48.680;8.894;2022-09-21T05:54:59;6.90;;;3.80;;
17384;SDS011;8810;48.680;8.894;2022-09-21T05:57:35;4.87;;;3.13;;
17384;SDS011;8810;48.680;8.894;2022-09-21T06:00:11;6.40;;;3.30;;
17384;SDS011;8810;48.680;8.894;2022-09-21T06:05:42;5.23;;;3.80;;
17384;SDS011;8810;48.680;8.894;2022-09-21T06:08:09;6.57;;;3.63;;
17384;SDS011;8810;48.680;8.894;2022-09-21T06:10:36;7.97;;;3.47;;
17384;SDS011;8810;48.680;8.894;2022-09-21T06:13:03;4.83;;;3.00;;
17384;SDS011;8810;48.680;8.894;2022-09-21T06:15:30;4.93;;;2.73;;
17384;SDS011;8810;48.680;8.894;2022-09-21T06:18:02;6.00;;;3.40;;
17384;SDS011;8810;48.680;8.894;2022-09-21T06:20:29;5.73;;;3.00;;
17384;SDS011;8810;48.680;8.894;2022-09-21T06:23:00;4.77;;;2.97;;
17384;SDS011;8810;48.680;8.894;2022-09-21T06:25:27;4.47;;;3.17;;
17384;SDS011;8810;48.680;8.894;2022-09-21T06:27:54;4.83;;;3.03;;
17384;SDS011;8810;48.680;8.894;2022-09-21T06:30:20;6.93;;;3.70;;
17384;SDS011;8810;48.680;8.894;2022-09-21T06:32:47;10.87;;;3.60;;
17384;SDS011;8810;48.680;8.894;2022-09-21T06:35:14;9.70;;;3.50;;
17384;SDS011;8810;48.680;8.894;2022-09-21T06:37:41;5.97;;;3.60;;
17384;SDS011;8810;48.680;8.894;2022-09-21T06:40:09;6.90;;;3.00;;
17384;SDS011;8810;48.680;8.894;2022-09-21T06:42:36;6.20;;;3.20;;
17384;SDS011;8810;48.680;8.894;2022-09-21T06:45:03;6.17;;;3.50;;
17384;SDS011;8810;48.680;8.894;2022-09-21T06:47:30;5.87;;;3.00;;
17384;SDS011;8810;48.680;8.894;2022-09-21T06:49:57;4.33;;;3.07;;
17384;SDS011;8810;48.680;8.894;2022-09-21T06:52:24;6.77;;;2.87;;
17384;SDS011;8810;48.680;8.894;2022-09-21T06:54:51;4.10;;;2.70;;
17384;SDS011;8810;48.680;8.894;2022-09-21T06:57:19;6.17;;;3.17;;
17384;SDS011;8810;48.680;8.894;2022-09-21T06:59:46;5.67;;;3.27;;
17384;SDS011;8810;48.680;8.894;2022-09-21T07:02:13;6.97;;;3.10;;
17384;SDS011;8810;48.680;8.894;2022-09-21T07:04:40;5.40;;;3.10;;
17384;SDS011;8810;48.680;8.894;2022-09-21T07:07:07;6.90;;;3.63;;
17384;SDS011;8810;48.680;8.894;2022-09-21T07:09:34;12.03;;;5.07;;
17384;SDS011;8810;48.680;8.894;2022-09-21T07:12:01;12.60;;;5.50;;
17384;SDS011;8810;48.680;8.894;2022-09-21T07:14:29;11.83;;;5.13;;
17384;SDS011;8810;48.680;8.894;2022-09-21T07:16:56;13.17;;;5.30;;
17384;SDS011;8810;48.680;8.894;2022-09-21T07:19:23;7.10;;;4.73;;
17384;SDS011;8810;48.680;8.894;2022-09-21T07:21:51;8.27;;;4.17;;
17384;SDS011;8810;48.680;8.894;2022-09-21T07:24:18;7.63;;;4.10;;
17384;SDS011;8810;48.680;8.894;2022-09-21T07:26:45;8.00;;;4.73;;
17384;SDS011;8810;48.680;8.894;2022-09-21T07:29:13;6.93;;;4.20;;
17384;SDS011;8810;48.680;8.894;2022-09-21T07:31:43;6.10;;;4.10;;
17384;SDS011;8810;48.680;8.894;2022-09-21T07:34:10;8.17;;;4.23;;
17384;SDS011;8810;48.680;8.894;2022-09-21T07:36:36;5.77;;;4.00;;
17384;SDS011;8810;48.680;8.894;2022-09-21T07:39:03;9.70;;;4.73;;
17384;SDS011;8810;48.680;8.894;2022-09-21T07:41:31;8.97;;;4.30;;
17384;SDS011;8810;48.680;8.894;2022-09-21T07:43:58;10.40;;;4.43;;
17384;SDS011;8810;48.680;8.894;2022-09-21T07:46:24;8.27;;;4.33;;
17384;SDS011;8810;48.680;8.894;2022-09-21T07:48:53;15.87;;;5.03;;
17384;SDS011;8810;48.680;8.894;2022-09-21T07:51:21;8.13;;;4.90;;
17384;SDS011;8810;48.680;8.894;2022-09-21T07:53:52;8.17;;;4.00;;
17384;SDS011;8810;48.680;8.894;2022-09-21T07:56:21;10.90;;;4.73;;
17384;SDS011;8810;48.680;8.894;2022-09-21T07:58:49;7.63;;;4.13;;
17384;SDS011;8810;48.680;8.894;2022-09-21T08:01:33;10.33;;;4.80;;
17384;SDS011;8810;48.680;8.894;2022-09-21T08:04:02;6.10;;;3.80;;
17384;SDS011;8810;48.680;8.894;2022-09-21T08:06:31;6.50;;;3.37;;
17384;SDS011;8810;48.680;8.894;2022-09-21T08:08:59;8.53;;;3.27;;
17384;SDS011;8810;48.680;8.894;2022-09-21T08:11:27;5.23;;;2.97;;
17384;SDS011;8810;48.680;8.894;2022-09-21T08:13:56;7.13;;;2.63;;
17384;SDS011;8810;48.680;8.894;2022-09-21T08:16:24;7.83;;;3.20;;
17384;SDS011;8810;48.680;8.894;2022-09-21T08:18:51;8.43;;;3.43;;
17384;SDS011;8810;48.680;8.894;2022-09-21T08:21:20;7.97;;;3.53;;
17384;SDS011;8810;48.680;8.894;2022-09-21T08:23:47;6.07;;;3.30;;
17384;SDS011;8810;48.680;8.894;2022-09-21T08:26:14;7.10;;;3.07;;
17384;SDS011;8810;48.680;8.894;2022-09-21T08:28:43;6.00;;;3.10;;
17384;SDS011;8810;48.680;8.894;2022-09-21T08:31:13;6.43;;;3.20;;
17384;SDS011;8810;48.680;8.894;2022-09-21T08:33:40;5.23;;;3.03;;
17384;SDS011;8810;48.680;8.894;2022-09-21T08:36:07;8.07;;;3.03;;
17384;SDS011;8810;48.680;8.894;2022-09-21T08:38:37;9.97;;;3.03;;
17384;SDS011;8810;48.680;8.894;2022-09-21T08:41:10;7.93;;;2.67;;
17384;SDS011;8810;48.680;8.894;2022-09-21T08:43:41;6.57;;;2.80;;
17384;SDS011;8810;48.680;8.894;2022-09-21T08:46:10;7.57;;;2.40;;
17384;SDS011;8810;48.680;8.894;2022-09-21T08:48:41;5.67;;;2.50;;
17384;SDS011;8810;48.680;8.894;2022-09-21T08:51:12;4.57;;;2.17;;
17384;SDS011;8810;48.680;8.894;2022-09-21T08:53:47;6.10;;;2.07;;
17384;SDS011;8810;48.680;8.894;2022-09-21T08:56:17;5.20;;;1.80;;
17384;SDS011;8810;48.680;8.894;2022-09-21T08:58:47;2.60;;;1.30;;
17384;SDS011;8810;48.680;8.894;2022-09-21T09:01:20;3.85;;;1.60;;
17384;SDS011;8810;48.680;8.894;2022-09-21T09:04:08;2.90;;;1.20;;
17384;SDS011;8810;48.680;8.894;2022-09-21T09:06:50;1.35;;;1.02;;
17384;SDS011;8810;48.680;8.894;2022-09-21T09:12:32;2.55;;;0.90;;
17384;SDS011;8810;48.680;8.894;2022-09-21T09:15:17;4.68;;;1.08;;
17384;SDS011;8810;48.680;8.894;2022-09-21T09:18:03;1.33;;;0.73;;
17384;SDS011;8810;48.680;8.894;2022-09-21T09:20:35;2.83;;;0.90;;
17384;SDS011;8810;48.680;8.894;2022-09-21T09:23:05;1.95;;;1.10;;
17384;SDS011;8810;48.680;8.894;2022-09-21T09:25:40;3.28;;;0.77;;
17384;SDS011;8810;48.680;8.894;2022-09-21T09:30:59;2.17;;;0.90;;
17384;SDS011;8810;48.680;8.894;2022-09-21T09:33:31;3.53;;;0.85;;
17384;SDS011;8810;48.680;8.894;2022-09-21T09:36:09;2.67;;;0.60;;
17384;SDS011;8810;48.680;8.894;2022-09-21T09:38:38;0.68;;;0.45;;
17384;SDS011;8810;48.680;8.894;2022-09-21T09:44:12;1.30;;;0.60;;
17384;SDS011;8810;48.680;8.894;2022-09-21T09:46:52;1.63;;;0.60;;
17384;SDS011;8810;48.680;8.894;2022-09-21T09:49:31;1.17;;;0.60;;
17384;SDS011;8810;48.680;8.894;2022-09-21T09:52:06;1.75;;;0.43;;
17384;SDS011;8810;48.680;8.894;2022-09-21T09:54:36;3.92;;;0.60;;
17384;SDS011;8810;48.680;8.894;2022-09-21T09:57:04;2.17;;;0.70;;
17384;SDS011;8810;48.680;8.894;2022-09-21T09:59:34;2.00;;;0.50;;
17384;SDS011;8810;48.680;8.894;2022-09-21T10:02:04;2.53;;;0.70;;
17384;SDS011;8810;48.680;8.894;2022-09-21T10:04:33;5.65;;;0.73;;
17384;SDS011;8810;48.680;8.894;2022-09-21T10:06:59;1.02;;;0.55;;
17384;SDS011;8810;48.680;8.894;2022-09-21T10:09:27;0.90;;;0.50;;
17384;SDS011;8810;48.680;8.894;2022-09-21T10:11:57;1.98;;;0.55;;
17384;SDS011;8810;48.680;8.894;2022-09-21T10:14:29;4.40;;;0.55;;
17384;SDS011;8810;48.680;8.894;2022-09-21T10:17:02;2.05;;;0.73;;
17384;SDS011;8810;48.680;8.894;2022-09-21T10:19:32;1.83;;;0.55;;
17384;SDS011;8810;48.680;8.894;2022-09-21T10:21:59;0.98;;;0.45;;
17384;SDS011;8810;48.680;8.894;2022-09-21T10:24:28;1.23;;;0.60;;
17384;SDS011;8810;48.680;8.894;2022-09-21T10:27:01;3.13;;;0.80;;
17384;SDS011;8810;48.680;8.894;2022-09-21T10:29:37;3.72;;;0.77;;
17384;SDS011;8810;48.680;8.894;2022-09-21T10:32:17;3.30;;;0.50;;
17384;SDS011;8810;48.680;8.894;2022-09-21T10:34:59;2.03;;;0.60;;
17384;SDS011;8810;48.680;8.894;2022-09-21T10:37:40;2.28;;;0.95;;
17384;SDS011;8810;48.680;8.894;2022-09-21T10:40:21;5.18;;;0.70;;
17384;SDS011;8810;48.680;8.894;2022-09-21T10:42:50;3.15;;;0.57;;
17384;SDS011;8810;48.680;8.894;2022-09-21T10:45:21;2.95;;;0.60;;
17384;SDS011;8810;48.680;8.894;2022-09-21T10:47:50;1.42;;;0.65;;
17384;SDS011;8810;48.680;8.894;2022-09-21T10:50:21;2.75;;;1.13;;
17384;SDS011;8810;48.680;8.894;2022-09-21T10:52:55;1.80;;;0.80;;
17384;SDS011;8810;48.680;8.894;2022-09-21T10:55:25;2.75;;;0.60;;
17384;SDS011;8810;48.680;8.894;2022-09-21T10:57:56;2.88;;;1.02;;
17384;SDS011;8810;48.680;8.894;2022-09-21T11:00:28;2.65;;;0.65;;
17384;SDS011;8810;48.680;8.894;2022-09-21T11:03:00;3.45;;;0.60;;
17384;SDS011;8810;48.680;8.894;2022-09-21T11:05:50;2.65;;;0.93;;
17384;SDS011;8810;48.680;8.894;2022-09-21T11:08:21;2.25;;;0.90;;
17384;SDS011;8810;48.680;8.894;2022-09-21T11:11:01;3.33;;;0.60;;
17384;SDS011;8810;48.680;8.894;2022-09-21T11:13:35;3.05;;;0.60;;
17384;SDS011;8810;48.680;8.894;2022-09-21T11:16:10;0.80;;;0.60;;
17384;SDS011;8810;48.680;8.894;2022-09-21T11:18:43;2.38;;;1.20;;
17384;SDS011;8810;48.680;8.894;2022-09-21T11:21:18;2.80;;;1.10;;
17384;SDS011;8810;48.680;8.894;2022-09-21T11:23:55;1.35;;;0.60;;
17384;SDS011;8810;48.680;8.894;2022-09-21T11:26:31;2.42;;;0.80;;
17384;SDS011;8810;48.680;8.894;2022-09-21T11:29:07;3.22;;;0.90;;
17384;SDS011;8810;48.680;8.894;2022-09-21T11:31:57;2.05;;;0.90;;
17384;SDS011;8810;48.680;8.894;2022-09-21T11:34:38;6.88;;;0.88;;
17384;SDS011;8810;48.680;8.894;2022-09-21T11:37:26;3.33;;;0.70;;
17384;SDS011;8810;48.680;8.894;2022-09-21T11:40:06;2.70;;;1.10;;
17384;SDS011;8810;48.680;8.894;2022-09-21T11:42:46;2.80;;;0.77;;
17384;SDS011;8810;48.680;8.894;2022-09-21T11:45:24;1.73;;;0.85;;
17384;SDS011;8810;48.680;8.894;2022-09-21T11:48:09;1.00;;;0.80;;
17384;SDS011;8810;48.680;8.894;2022-09-21T11:50:51;2.75;;;1.00;;
17384;SDS011;8810;48.680;8.894;2022-09-21T11:53:31;4.28;;;0.70;;
17384;SDS011;8810;48.680;8.894;2022-09-21T11:59:11;4.60;;;0.90;;
17384;SDS011;8810;48.680;8.894;2022-09-21T12:01:55;3.58;;;1.02;;
17384;SDS011;8810;48.680;8.894;2022-09-21T12:04:46;4.95;;;0.98;;
17384;SDS011;8810;48.680;8.894;2022-09-21T12:07:19;3.72;;;0.85;;
17384;SDS011;8810;48.680;8.894;2022-09-21T12:12:48;1.15;;;0.70;;
17384;SDS011;8810;48.680;8.894;2022-09-21T12:15:19;1.20;;;0.68;;
17384;SDS011;8810;48.680;8.894;2022-09-21T12:17:52;2.90;;;0.80;;
17384;SDS011;8810;48.680;8.894;2022-09-21T12:20:27;0.88;;;0.60;;
17384;SDS011;8810;48.680;8.894;2022-09-21T12:23:00;3.17;;;0.80;;
17384;SDS011;8810;48.680;8.894;2022-09-21T12:25:31;2.63;;;0.82;;
17384;SDS011;8810;48.680;8.894;2022-09-21T12:28:05;1.30;;;0.68;;
17384;SDS011;8810;48.680;8.894;2022-09-21T12:30:38;0.93;;;0.50;;
17384;SDS011;8810;48.680;8.894;2022-09-21T12:33:09;3.00;;;0.90;;
17384;SDS011;8810;48.680;8.894;2022-09-21T12:35:42;2.53;;;1.40;;
17384;SDS011;8810;48.680;8.894;2022-09-21T12:38:12;1.45;;;0.57;;
17384;SDS011;8810;48.680;8.894;2022-09-21T12:40:44;3.25;;;1.67;;
17384;SDS011;8810;48.680;8.894;2022-09-21T12:43:20;2.65;;;1.33;;
17384;SDS011;8810;48.680;8.894;2022-09-21T12:45:56;4.85;;;2.10;;
17384;SDS011;8810;48.680;8.894;2022-09-21T12:48:28;2.55;;;1.20;;
17384;SDS011;8810;48.680;8.894;2022-09-21T12:51:00;0.70;;;0.50;;
17384;SDS011;8810;48.680;8.894;2022-09-21T12:53:31;0.95;;;0.63;;
17384;SDS011;8810;48.680;8.894;2022-09-21T12:56:02;2.72;;;0.50;;
17384;SDS011;8810;48.680;8.894;2022-09-21T12:58:41;4.30;;;0.80;;
17384;SDS011;8810;48.680;8.894;2022-09-21T13:01:28;6.13;;;0.90;;
17384;SDS011;8810;48.680;8.894;2022-09-21T13:04:01;0.82;;;0.50;;
17384;SDS011;8810;48.680;8.894;2022-09-21T13:06:44;0.70;;;0.50;;
17384;SDS011;8810;48.680;8.894;2022-09-21T13:09:36;1.58;;;0.85;;
17384;SDS011;8810;48.680;8.894;2022-09-21T13:12:06;2.72;;;0.88;;
17384;SDS011;8810;48.680;8.894;2022-09-21T13:14:40;3.95;;;1.30;;
17384;SDS011;8810;48.680;8.894;2022-09-21T13:17:17;4.30;;;1.38;;
17384;SDS011;8810;48.680;8.894;2022-09-21T13:19:54;2.95;;;0.90;;
17384;SDS011;8810;48.680;8.894;2022-09-21T13:22:24;4.75;;;0.80;;
17384;SDS011;8810;48.680;8.894;2022-09-21T13:24:59;5.35;;;1.10;;
17384;SDS011;8810;48.680;8.894;2022-09-21T13:33:28;1.40;;;0.82;;
17384;SDS011;8810;48.680;8.894;2022-09-21T13:36:27;1.40;;;0.80;;
17384;SDS011;8810;48.680;8.894;2022-09-21T13:39:03;2.10;;;1.08;;
17384;SDS011;8810;48.680;8.894;2022-09-21T13:41:39;3.63;;;1.40;;
17384;SDS011;8810;48.680;8.894;2022-09-21T13:44:17;2.17;;;1.20;;
17384;SDS011;8810;48.680;8.894;2022-09-21T13:46:49;4.28;;;1.50;;
17384;SDS011;8810;48.680;8.894;2022-09-21T13:49:29;2.42;;;1.08;;
17384;SDS011;8810;48.680;8.894;2022-09-21T13:52:24;3.72;;;1.33;;
17384;SDS011;8810;48.680;8.894;2022-09-21T13:55:16;2.13;;;1.00;;
17384;SDS011;8810;48.680;8.894;2022-09-21T13:57:49;1.77;;;0.82;;
17384;SDS011;8810;48.680;8.894;2022-09-21T14:00:24;2.67;;;1.05;;
17384;SDS011;8810;48.680;8.894;2022-09-21T14:03:04;0.95;;;0.63;;
17384;SDS011;8810;48.680;8.894;2022-09-21T14:05:43;2.33;;;1.20;;
17384;SDS011;8810;48.680;8.894;2022-09-21T14:08:24;2.05;;;1.13;;
17384;SDS011;8810;48.680;8.894;2022-09-21T14:10:56;2.72;;;1.40;;
17384;SDS011;8810;48.680;8.894;2022-09-21T14:13:28;1.75;;;0.60;;
17384;SDS011;8810;48.680;8.894;2022-09-21T14:18:51;3.17;;;1.00;;
17384;SDS011;8810;48.680;8.894;2022-09-21T14:21:19;2.58;;;1.15;;
17384;SDS011;8810;48.680;8.894;2022-09-21T14:26:51;1.42;;;0.70;;
17384;SDS011;8810;48.680;8.894;2022-09-21T14:29:32;3.10;;;0.85;;
17384;SDS011;8810;48.680;8.894;2022-09-21T14:32:10;5.47;;;1.50;;
17384;SDS011;8810;48.680;8.894;2022-09-21T14:34:41;2.08;;;0.93;;
17384;SDS011;8810;48.680;8.894;2022-09-21T14:37:16;2.90;;;0.98;;
17384;SDS011;8810;48.680;8.894;2022-09-21T14:39:52;4.20;;;1.33;;
17384;SDS011;8810;48.680;8.894;2022-09-21T14:42:22;2.15;;;1.17;;
17384;SDS011;8810;48.680;8.894;2022-09-21T14:44:54;0.95;;;0.80;;
17384;SDS011;8810;48.680;8.894;2022-09-21T14:47:30;1.80;;;1.00;;
17384;SDS011;8810;48.680;8.894;2022-09-21T14:50:24;1.50;;;1.10;;
17384;SDS011;8810;48.680;8.894;2022-09-21T14:53:09;1.95;;;1.10;;
17384;SDS011;8810;48.680;8.894;2022-09-21T14:56:05;1.83;;;0.80;;
17384;SDS011;8810;48.680;8.894;2022-09-21T14:58:49;3.05;;;1.40;;
17384;SDS011;8810;48.680;8.894;2022-09-21T15:01:33;1.33;;;0.75;;
17384;SDS011;8810;48.680;8.894;2022-09-21T15:04:07;1.38;;;0.77;;
17384;SDS011;8810;48.680;8.894;2022-09-21T15:06:49;2.17;;;0.98;;
17384;SDS011;8810;48.680;8.894;2022-09-21T15:09:50;5.00;;;1.20;;
17384;SDS011;8810;48.680;8.894;2022-09-21T15:12:51;6.07;;;1.70;;
17384;SDS011;8810;48.680;8.894;2022-09-21T15:15:30;6.63;;;1.30;;
17384;SDS011;8810;48.680;8.894;2022-09-21T15:18:01;2.78;;;1.30;;
17384;SDS011;8810;48.680;8.894;2022-09-21T15:20:30;4.10;;;1.90;;
17384;SDS011;8810;48.680;8.894;2022-09-21T15:22:58;3.50;;;1.80;;
17384;SDS011;8810;48.680;8.894;2022-09-21T15:25:28;4.18;;;1.40;;
17384;SDS011;8810;48.680;8.894;2022-09-21T15:27:58;4.20;;;1.45;;
17384;SDS011;8810;48.680;8.894;2022-09-21T15:30:26;2.85;;;1.42;;
17384;SDS011;8810;48.680;8.894;2022-09-21T15:32:56;1.00;;;0.70;;
17384;SDS011;8810;48.680;8.894;2022-09-21T15:35:25;1.80;;;0.75;;
17384;SDS011;8810;48.680;8.894;2022-09-21T15:37:54;2.88;;;1.00;;
17384;SDS011;8810;48.680;8.894;2022-09-21T15:40:24;0.98;;;0.68;;
17384;SDS011;8810;48.680;8.894;2022-09-21T15:43:02;3.22;;;0.90;;
17384;SDS011;8810;48.680;8.894;2022-09-21T15:45:31;0.95;;;0.45;;
17384;SDS011;8810;48.680;8.894;2022-09-21T15:48:02;1.45;;;0.70;;
17384;SDS011;8810;48.680;8.894;2022-09-21T15:50:34;0.70;;;0.50;;
17384;SDS011;8810;48.680;8.894;2022-09-21T15:53:04;0.82;;;0.55;;
17384;SDS011;8810;48.680;8.894;2022-09-21T15:55:35;3.75;;;0.60;;
17384;SDS011;8810;48.680;8.894;2022-09-21T15:58:03;1.55;;;1.00;;
17384;SDS011;8810;48.680;8.894;2022-09-21T16:00:42;0.93;;;0.70;;
17384;SDS011;8810;48.680;8.894;2022-09-21T16:03:18;1.17;;;0.80;;